sensor_id;sensor_type;location;lat;lon;timestamp;pressure;altitude;pressure_sealevel;temperature;humidity
9764;BME280;4921;43.214;27.936;2023-05-12T00:00:18;101618.50;;;13.79;100.00
9764;BME280;4921;43.214;27.936;2023-05-12T00:02:45;101611.41;;;13.80;100.00
9764;BME280;4921;43.214;27.936;2023-05-12T00:05:12;101614.78;;;13.82;100.00
9764;BME280;4921;43.214;27.936;2023-05-12T00:07:41;101615.13;;;13.77;100.00
9764;BME280;4921;43.214;27.936;2023-05-12T00:10:08;101616.94;;;13.76;100.00
9764;BME280;4921;43.214;27.936;2023-05-12T00:12:35;101613.69;;;13.73;100.00
9764;BME280;4921;43.214;27.936;2023-05-12T00:15:03;101613.53;;;13.63;100.00
9764;BME280;4921;43.214;27.936;2023-05-12T00:17:30;101615.94;;;13.66;100.00
9764;BME280;4921;43.214;27.936;2023-05-12T00:19:57;101607.78;;;13.69;100.00
9764;BME280;4921;43.214;27.936;2023-05-12T00:22:24;101608.50;;;13.71;100.00
9764;BME280;4921;43.214;27.936;2023-05-12T00:24:53;101603.22;;;13.71;100.00
9764;BME280;4921;43.214;27.936;2023-05-12T00:27:20;101607.19;;;13.77;100.00
9764;BME280;4921;43.214;27.936;2023-05-12T00:29:47;101610.69;;;13.77;100.00
9764;BME280;4921;43.214;27.936;2023-05-12T00:32:14;101607.19;;;13.77;100.00
9764;BME280;4921;43.214;27.936;2023-05-12T00:34:41;101611.88;;;13.73;100.00
9764;BME280;4921;43.214;27.936;2023-05-12T00:37:09;101606.59;;;13.73;100.00
9764;BME280;4921;43.214;27.936;2023-05-12T00:39:35;101606.84;;;13.82;100.00
9764;BME280;4921;43.214;27.936;2023-05-12T00:42:04;101605.41;;;13.77;100.00
9764;BME280;4921;43.214;27.936;2023-05-12T00:44:32;101609.72;;;13.78;100.00
9764;BME280;4921;43.214;27.936;2023-05-12T00:46:59;101599.13;;;13.78;100.00
9764;BME280;4921;43.214;27.936;2023-05-12T00:49:26;101601.06;;;13.76;100.00
9764;BME280;4921;43.214;27.936;2023-05-12T00:51:53;101606.34;;;13.76;100.00
9764;BME280;4921;43.214;27.936;2023-05-12T00:54:20;101610.56;;;13.79;100.00
9764;BME280;4921;43.214;27.936;2023-05-12T00:56:48;101599.63;;;13.84;100.00
9764;BME280;4921;43.214;27.936;2023-05-12T00:59:16;101602.78;;;13.89;100.00
9764;BME280;4921;43.214;27.936;2023-05-12T01:01:43;101598.06;;;13.81;100.00
9764;BME280;4921;43.214;27.936;2023-05-12T01:04:10;101602.63;;;13.79;100.00
9764;BME280;4921;43.214;27.936;2023-05-12T01:06:42;101600.22;;;13.87;100.00
9764;BME280;4921;43.214;27.936;2023-05-12T01:09:11;101599.50;;;13.85;100.00
9764;BME280;4921;43.214;27.936;2023-05-12T01:11:38;101600.94;;;13.78;100.00
9764;BME280;4921;43.214;27.936;2023-05-12T01:14:05;101586.78;;;13.79;100.00
9764;BME280;4921;43.214;27.936;2023-05-12T01:16:36;101584.34;;;13.76;100.00
9764;BME280;4921;43.214;27.936;2023-05-12T01:19:08;101555.38;;;13.63;100.00
9764;BME280;4921;43.214;27.936;2023-05-12T01:21:37;101582.44;;;13.78;100.00
9764;BME280;4921;43.214;27.936;2023-05-12T01:24:07;101591.06;;;13.58;100.00
9764;BME280;4921;43.214;27.936;2023-05-12T01:26:36;101592.03;;;13.68;100.00
9764;BME280;4921;43.214;27.936;2023-05-12T01:29:03;101591.81;;;13.71;100.00
9764;BME280;4921;43.214;27.936;2023-05-12T01:31:31;101593.25;;;13.75;100.00
9764;BME280;4921;43.214;27.936;2023-05-12T01:33:58;101584.97;;;13.80;100.00
9764;BME280;4921;43.214;27.936;2023-05-12T01:36:25;101558.53;;;13.68;100.00
9764;BME280;4921;43.214;27.936;2023-05-12T01:38:53;101572.22;;;13.85;100.00
9764;BME280;4921;43.214;27.936;2023-05-12T01:41:19;101580.28;;;13.83;100.00
9764;BME280;4921;43.214;27.936;2023-05-12T01:43:48;101568.25;;;13.79;100.00
9764;BME280;4921;43.214;27.936;2023-05-12T01:46:15;101575.97;;;13.82;100.00
9764;BME280;4921;43.214;27.936;2023-05-12T01:48:42;101563.47;;;13.84;100.00
9764;BME280;4921;43.214;27.936;2023-05-12T01:51:09;101572.34;;;13.83;100.00
9764;BME280;4921;43.214;27.936;2023-05-12T01:53:36;101566.13;;;13.84;100.00
9764;BME280;4921;43.214;27.936;2023-05-12T01:56:03;101569.19;;;13.78;100.00
9764;BME280;4921;43.214;27.936;2023-05-12T01:58:30;101561.75;;;13.83;100.00
9764;BME280;4921;43.214;27.936;2023-05-12T02:00:58;101568.03;;;13.82;100.00
9764;BME280;4921;43.214;27.936;2023-05-12T02:03:25;101568.84;;;13.83;100.00
9764;BME280;4921;43.214;27.936;2023-05-12T02:05:52;101582.06;;;13.83;100.00
9764;BME280;4921;43.214;27.936;2023-05-12T02:08:19;101576.06;;;13.81;100.00
9764;BME280;4921;43.214;27.936;2023-05-12T02:10:46;101571.75;;;13.80;100.00
9764;BME280;4921;43.214;27.936;2023-05-12T02:13:13;101559.84;;;13.85;100.00
9764;BME280;4921;43.214;27.936;2023-05-12T02:15:40;101577.50;;;13.85;100.00
9764;BME280;4921;43.214;27.936;2023-05-12T02:18:08;101570.78;;;13.81;100.00
9764;BME280;4921;43.214;27.936;2023-05-12T02:20:35;101573.53;;;13.79;100.00
9764;BME280;4921;43.214;27.936;2023-05-12T02:23:02;101559.03;;;13.73;100.00
9764;BME280;4921;43.214;27.936;2023-05-12T02:25:29;101558.75;;;13.76;100.00
9764;BME280;4921;43.214;27.936;2023-05-12T02:27:55;101563.56;;;13.83;100.00
9764;BME280;4921;43.214;27.936;2023-05-12T02:30:22;101562.75;;;13.82;100.00
9764;BME280;4921;43.214;27.936;2023-05-12T02:32:49;101559.25;;;13.82;100.00
9764;BME280;4921;43.214;27.936;2023-05-12T02:35:18;101572.47;;;13.82;100.00
9764;BME280;4921;43.214;27.936;2023-05-12T02:37:45;101560.19;;;13.81;100.00
9764;BME280;4921;43.214;27.936;2023-05-12T02:40:13;101558.41;;;13.81;100.00
9764;BME280;4921;43.214;27.936;2023-05-12T02:42:40;101562.03;;;13.80;100.00
9764;BME280;4921;43.214;27.936;2023-05-12T02:45:08;101562.75;;;13.82;100.00
9764;BME280;4921;43.214;27.936;2023-05-12T02:47:36;101561.75;;;13.83;100.00
9764;BME280;4921;43.214;27.936;2023-05-12T02:50:03;101568.63;;;13.86;100.00
9764;BME280;4921;43.214;27.936;2023-05-12T02:52:32;101568.75;;;13.84;100.00
9764;BME280;4921;43.214;27.936;2023-05-12T02:54:59;101577.16;;;13.89;100.00
9764;BME280;4921;43.214;27.936;2023-05-12T02:57:25;101574.63;;;13.88;100.00
9764;BME280;4921;43.214;27.936;2023-05-12T02:59:58;101573.91;;;13.86;100.00
9764;BME280;4921;43.214;27.936;2023-05-12T03:02:25;101579.34;;;13.84;100.00
9764;BME280;4921;43.214;27.936;2023-05-12T03:04:52;101575.00;;;13.83;100.00
9764;BME280;4921;43.214;27.936;2023-05-12T03:07:19;101579.34;;;13.84;100.00
9764;BME280;4921;43.214;27.936;2023-05-12T03:09:47;101582.78;;;13.85;100.00
9764;BME280;4921;43.214;27.936;2023-05-12T03:12:14;101589.06;;;13.84;100.00
9764;BME280;4921;43.214;27.936;2023-05-12T03:14:42;101590.72;;;13.85;100.00
9764;BME280;4921;43.214;27.936;2023-05-12T03:17:08;101590.13;;;13.81;100.00
9764;BME280;4921;43.214;27.936;2023-05-12T03:19:35;101593.75;;;13.80;100.00
9764;BME280;4921;43.214;27.936;2023-05-12T03:22:03;101583.63;;;13.85;100.00
9764;BME280;4921;43.214;27.936;2023-05-12T03:24:31;101593.13;;;13.76;100.00
9764;BME280;4921;43.214;27.936;2023-05-12T03:27:00;101583.03;;;13.82;100.00
9764;BME280;4921;43.214;27.936;2023-05-12T03:29:27;101587.72;;;13.78;100.00
9764;BME280;4921;43.214;27.936;2023-05-12T03:31:54;101600.00;;;13.90;100.00
9764;BME280;4921;43.214;27.936;2023-05-12T03:34:21;101603.25;;;13.94;100.00
9764;BME280;4921;43.214;27.936;2023-05-12T03:36:48;101602.28;;;13.95;100.00
9764;BME280;4921;43.214;27.936;2023-05-12T03:39:15;101601.31;;;13.96;100.00
9764;BME280;4921;43.214;27.936;2023-05-12T03:41:41;101598.66;;;13.96;100.00
9764;BME280;4921;43.214;27.936;2023-05-12T03:44:10;101592.44;;;13.97;100.00
9764;BME280;4921;43.214;27.936;2023-05-12T03:46:37;101600.81;;;14.02;100.00
9764;BME280;4921;43.214;27.936;2023-05-12T03:49:04;101589.06;;;14.06;100.00
9764;BME280;4921;43.214;27.936;2023-05-12T03:51:31;101600.38;;;14.08;100.00
9764;BME280;4921;43.214;27.936;2023-05-12T03:53:58;101590.75;;;14.07;100.00
9764;BME280;4921;43.214;27.936;2023-05-12T03:56:25;101602.88;;;14.09;100.00
9764;BME280;4921;43.214;27.936;2023-05-12T03:58:53;101591.94;;;14.14;100.00
9764;BME280;4921;43.214;27.936;2023-05-12T04:01:21;101593.53;;;14.16;100.00
9764;BME280;4921;43.214;27.936;2023-05-12T04:03:48;101600.25;;;14.20;100.00
9764;BME280;4921;43.214;27.936;2023-05-12T04:06:15;101601.91;;;14.21;100.00
9764;BME280;4921;43.214;27.936;2023-05-12T04:08:42;101591.63;;;14.29;100.00
9764;BME280;4921;43.214;27.936;2023-05-12T04:11:09;101595.56;;;14.35;100.00
9764;BME280;4921;43.214;27.936;2023-05-12T04:13:36;101599.19;;;14.34;100.00
9764;BME280;4921;43.214;27.936;2023-05-12T04:16:03;101597.38;;;14.34;100.00
9764;BME280;4921;43.214;27.936;2023-05-12T04:18:32;101595.06;;;14.41;100.00
9764;BME280;4921;43.214;27.936;2023-05-12T04:21:00;101602.78;;;14.44;100.00
9764;BME280;4921;43.214;27.936;2023-05-12T04:23:27;101595.91;;;14.41;100.00
9764;BME280;4921;43.214;27.936;2023-05-12T04:25:54;101599.03;;;14.58;100.00
9764;BME280;4921;43.214;27.936;2023-05-12T04:28:21;101598.38;;;14.76;100.00
9764;BME280;4921;43.214;27.936;2023-05-12T04:30:48;101603.97;;;14.94;100.00
9764;BME280;4921;43.214;27.936;2023-05-12T04:33:15;101598.50;;;15.06;100.00
9764;BME280;4921;43.214;27.936;2023-05-12T04:35:43;101582.44;;;15.19;100.00
9764;BME280;4921;43.214;27.936;2023-05-12T04:38:10;101584.06;;;15.31;100.00
9764;BME280;4921;43.214;27.936;2023-05-12T04:40:37;101576.84;;;15.33;100.00
9764;BME280;4921;43.214;27.936;2023-05-12T04:43:04;101582.00;;;15.35;100.00
9764;BME280;4921;43.214;27.936;2023-05-12T04:45:31;101546.81;;;15.12;100.00
9764;BME280;4921;43.214;27.936;2023-05-12T04:47:58;101586.44;;;15.34;100.00
9764;BME280;4921;43.214;27.936;2023-05-12T04:50:25;101578.50;;;15.34;100.00
9764;BME280;4921;43.214;27.936;2023-05-12T04:52:53;101576.69;;;15.35;100.00
9764;BME280;4921;43.214;27.936;2023-05-12T04:55:20;101582.56;;;15.38;100.00
9764;BME280;4921;43.214;27.936;2023-05-12T04:57:47;101584.50;;;15.36;100.00
9764;BME280;4921;43.214;27.936;2023-05-12T05:00:14;101578.63;;;15.33;100.00
9764;BME280;4921;43.214;27.936;2023-05-12T05:02:41;101591.28;;;15.29;100.00
9764;BME280;4921;43.214;27.936;2023-05-12T05:05:08;101585.50;;;15.35;100.00
9764;BME280;4921;43.214;27.936;2023-05-12T05:07:36;101593.06;;;15.40;100.00
9764;BME280;4921;43.214;27.936;2023-05-12T05:10:06;101598.84;;;15.45;100.00
9764;BME280;4921;43.214;27.936;2023-05-12T05:12:33;101596.44;;;15.42;100.00
9764;BME280;4921;43.214;27.936;2023-05-12T05:15:00;101603.19;;;15.46;100.00
9764;BME280;4921;43.214;27.936;2023-05-12T05:17:27;101593.00;;;15.51;100.00
9764;BME280;4921;43.214;27.936;2023-05-12T05:19:54;101602.25;;;15.56;100.00
9764;BME280;4921;43.214;27.936;2023-05-12T05:22:21;101592.03;;;15.52;100.00
9764;BME280;4921;43.214;27.936;2023-05-12T05:24:48;101605.25;;;15.63;100.00
9764;BME280;4921;43.214;27.936;2023-05-12T05:27:16;101607.75;;;15.64;100.00
9764;BME280;4921;43.214;27.936;2023-05-12T05:29:43;101611.13;;;15.66;100.00
9764;BME280;4921;43.214;27.936;2023-05-12T05:32:10;101604.97;;;15.66;100.00
9764;BME280;4921;43.214;27.936;2023-05-12T05:34:37;101605.88;;;15.76;100.00
9764;BME280;4921;43.214;27.936;2023-05-12T05:37:04;101600.97;;;15.71;100.00
9764;BME280;4921;43.214;27.936;2023-05-12T05:39:31;101610.78;;;15.80;100.00
9764;BME280;4921;43.214;27.936;2023-05-12T05:41:58;101615.25;;;15.80;100.00
9764;BME280;4921;43.214;27.936;2023-05-12T05:44:26;101612.31;;;15.83;100.00
9764;BME280;4921;43.214;27.936;2023-05-12T05:46:53;101619.56;;;15.81;100.00
9764;BME280;4921;43.214;27.936;2023-05-12T05:49:20;101619.38;;;15.93;100.00
9764;BME280;4921;43.214;27.936;2023-05-12T05:51:47;101614.09;;;16.03;100.00
9764;BME280;4921;43.214;27.936;2023-05-12T05:54:14;101620.72;;;16.09;100.00
9764;BME280;4921;43.214;27.936;2023-05-12T05:56:41;101628.25;;;16.13;100.00
9764;BME280;4921;43.214;27.936;2023-05-12T05:59:08;101622.75;;;16.26;100.00
9764;BME280;4921;43.214;27.936;2023-05-12T06:01:36;101619.09;;;16.27;100.00
9764;BME280;4921;43.214;27.936;2023-05-12T06:04:03;101629.78;;;16.06;100.00
9764;BME280;4921;43.214;27.936;2023-05-12T06:06:30;101623.00;;;16.23;100.00
9764;BME280;4921;43.214;27.936;2023-05-12T06:08:57;101623.31;;;16.29;100.00
9764;BME280;4921;43.214;27.936;2023-05-12T06:11:24;101628.47;;;16.00;100.00
9764;BME280;4921;43.214;27.936;2023-05-12T06:13:51;101626.53;;;16.02;100.00
9764;BME280;4921;43.214;27.936;2023-05-12T06:16:18;101627.94;;;16.07;100.00
9764;BME280;4921;43.214;27.936;2023-05-12T06:18:47;101624.81;;;16.22;100.00
9764;BME280;4921;43.214;27.936;2023-05-12T06:21:14;101631.81;;;16.23;100.00
9764;BME280;4921;43.214;27.936;2023-05-12T06:23:40;101638.69;;;16.35;100.00
9764;BME280;4921;43.214;27.936;2023-05-12T06:26:07;101627.28;;;16.14;100.00
9764;BME280;4921;43.214;27.936;2023-05-12T06:28:36;101631.72;;;16.34;100.00
9764;BME280;4921;43.214;27.936;2023-05-12T06:31:05;101625.81;;;16.31;100.00
9764;BME280;4921;43.214;27.936;2023-05-12T06:33:33;101623.31;;;16.29;100.00
9764;BME280;4921;43.214;27.936;2023-05-12T06:36:01;101628.78;;;16.37;100.00
9764;BME280;4921;43.214;27.936;2023-05-12T06:38:28;101631.72;;;16.34;100.00
9764;BME280;4921;43.214;27.936;2023-05-12T06:40:55;101627.53;;;16.41;100.00
9764;BME280;4921;43.214;27.936;2023-05-12T06:43:22;101624.38;;;16.17;100.00
9764;BME280;4921;43.214;27.936;2023-05-12T06:45:49;101621.09;;;16.04;100.00
9764;BME280;4921;43.214;27.936;2023-05-12T06:48:16;101629.25;;;16.12;100.00
9764;BME280;4921;43.214;27.936;2023-05-12T06:50:44;101628.91;;;16.36;100.00
9764;BME280;4921;43.214;27.936;2023-05-12T06:53:12;101630.31;;;16.40;100.00
9764;BME280;4921;43.214;27.936;2023-05-12T06:55:39;101634.47;;;16.53;100.00
9764;BME280;4921;43.214;27.936;2023-05-12T06:58:08;101633.81;;;16.70;100.00
9764;BME280;4921;43.214;27.936;2023-05-12T07:00:35;101636.47;;;16.80;100.00
9764;BME280;4921;43.214;27.936;2023-05-12T07:03:02;101630.34;;;16.89;100.00
9764;BME280;4921;43.214;27.936;2023-05-12T07:05:29;101630.91;;;17.02;100.00
9764;BME280;4921;43.214;27.936;2023-05-12T07:07:56;101629.53;;;17.08;100.00
9764;BME280;4921;43.214;27.936;2023-05-12T07:10:25;101643.25;;;17.03;100.00
9764;BME280;4921;43.214;27.936;2023-05-12T07:12:52;101632.75;;;17.21;100.00
9764;BME280;4921;43.214;27.936;2023-05-12T07:15:19;101640.44;;;17.33;100.00
9764;BME280;4921;43.214;27.936;2023-05-12T07:17:46;101640.56;;;17.41;100.00
9764;BME280;4921;43.214;27.936;2023-05-12T07:20:13;101643.91;;;17.34;100.00
9764;BME280;4921;43.214;27.936;2023-05-12T07:22:40;101649.81;;;17.37;100.00
9764;BME280;4921;43.214;27.936;2023-05-12T07:25:07;101651.47;;;17.19;100.00
9764;BME280;4921;43.214;27.936;2023-05-12T07:27:35;101653.47;;;17.27;100.00
9764;BME280;4921;43.214;27.936;2023-05-12T07:30:03;101648.69;;;17.30;100.00
9764;BME280;4921;43.214;27.936;2023-05-12T07:32:30;101651.38;;;17.40;100.00
9764;BME280;4921;43.214;27.936;2023-05-12T07:34:57;101649.69;;;17.48;100.00
9764;BME280;4921;43.214;27.936;2023-05-12T07:37:24;101655.28;;;17.36;97.85
9764;BME280;4921;43.214;27.936;2023-05-12T07:39:51;101653.63;;;17.54;100.00
9764;BME280;4921;43.214;27.936;2023-05-12T07:42:18;101651.94;;;17.63;100.00
9764;BME280;4921;43.214;27.936;2023-05-12T07:44:48;101657.81;;;17.66;100.00
9764;BME280;4921;43.214;27.936;2023-05-12T07:47:15;101655.44;;;17.63;96.80
9764;BME280;4921;43.214;27.936;2023-05-12T07:49:42;101659.63;;;17.66;100.00
9764;BME280;4921;43.214;27.936;2023-05-12T07:52:08;101653.47;;;17.75;100.00
9764;BME280;4921;43.214;27.936;2023-05-12T07:54:35;101674.03;;;17.73;94.45
9764;BME280;4921;43.214;27.936;2023-05-12T07:57:03;101657.25;;;17.63;97.37
9764;BME280;4921;43.214;27.936;2023-05-12T07:59:30;101666.19;;;17.42;96.06
9764;BME280;4921;43.214;27.936;2023-05-12T08:01:59;101654.97;;;17.01;93.79
9764;BME280;4921;43.214;27.936;2023-05-12T08:04:26;101665.72;;;16.90;100.00
9764;BME280;4921;43.214;27.936;2023-05-12T08:06:53;101666.44;;;17.11;100.00
9764;BME280;4921;43.214;27.936;2023-05-12T08:09:20;101655.41;;;17.15;100.00
9764;BME280;4921;43.214;27.936;2023-05-12T08:11:47;101671.06;;;17.28;100.00
9764;BME280;4921;43.214;27.936;2023-05-12T08:14:14;101670.53;;;17.43;100.00
9764;BME280;4921;43.214;27.936;2023-05-12T08:16:41;101667.75;;;17.55;100.00
9764;BME280;4921;43.214;27.936;2023-05-12T08:19:11;101683.88;;;17.53;97.78
9764;BME280;4921;43.214;27.936;2023-05-12T08:21:38;101666.06;;;17.53;94.49
9764;BME280;4921;43.214;27.936;2023-05-12T08:24:05;101671.69;;;17.50;98.10
9764;BME280;4921;43.214;27.936;2023-05-12T08:26:32;101678.94;;;17.58;96.39
9764;BME280;4921;43.214;27.936;2023-05-12T08:28:59;101691.13;;;17.61;100.00
9764;BME280;4921;43.214;27.936;2023-05-12T08:31:27;101686.09;;;17.67;94.53
9764;BME280;4921;43.214;27.936;2023-05-12T08:33:54;101669.69;;;17.62;100.00
9764;BME280;4921;43.214;27.936;2023-05-12T08:36:22;101683.25;;;17.49;100.00
9764;BME280;4921;43.214;27.936;2023-05-12T08:38:49;101687.88;;;17.47;100.00
9764;BME280;4921;43.214;27.936;2023-05-12T08:41:19;101684.69;;;17.63;100.00
9764;BME280;4921;43.214;27.936;2023-05-12T08:43:49;101683.03;;;17.52;100.00
9764;BME280;4921;43.214;27.936;2023-05-12T08:46:16;101692.09;;;17.31;100.00
9764;BME280;4921;43.214;27.936;2023-05-12T08:48:44;101686.22;;;17.46;100.00
9764;BME280;4921;43.214;27.936;2023-05-12T08:51:13;101684.53;;;17.45;100.00
9764;BME280;4921;43.214;27.936;2023-05-12T08:53:41;101678.94;;;17.68;100.00
9764;BME280;4921;43.214;27.936;2023-05-12T08:56:09;101687.63;;;17.60;100.00
9764;BME280;4921;43.214;27.936;2023-05-12T08:58:37;101697.44;;;17.60;100.00
9764;BME280;4921;43.214;27.936;2023-05-12T09:01:05;101691.84;;;17.53;100.00
9764;BME280;4921;43.214;27.936;2023-05-12T09:03:33;101689.72;;;17.76;100.00
9764;BME280;4921;43.214;27.936;2023-05-12T09:06:00;101702.06;;;17.77;100.00
9764;BME280;4921;43.214;27.936;2023-05-12T09:08:29;101703.72;;;17.78;100.00
9764;BME280;4921;43.214;27.936;2023-05-12T09:10:59;101690.53;;;17.86;100.00
9764;BME280;4921;43.214;27.936;2023-05-12T09:13:31;101689.88;;;17.74;100.00
9764;BME280;4921;43.214;27.936;2023-05-12T09:16:00;101695.91;;;17.57;100.00
9764;BME280;4921;43.214;27.936;2023-05-12T09:18:40;101695.59;;;17.41;100.00
9764;BME280;4921;43.214;27.936;2023-05-12T09:21:10;101695.44;;;17.33;100.00
9764;BME280;4921;43.214;27.936;2023-05-12T09:23:36;101683.56;;;17.56;100.00
9764;BME280;4921;43.214;27.936;2023-05-12T09:26:05;101684.25;;;17.77;100.00
9764;BME280;4921;43.214;27.936;2023-05-12T09:28:35;101684.09;;;17.88;100.00
9764;BME280;4921;43.214;27.936;2023-05-12T09:31:13;101681.31;;;17.90;100.00
9764;BME280;4921;43.214;27.936;2023-05-12T09:33:41;101681.41;;;17.98;100.00
9764;BME280;4921;43.214;27.936;2023-05-12T09:36:08;101682.53;;;17.95;100.00
9764;BME280;4921;43.214;27.936;2023-05-12T09:38:35;101675.25;;;17.88;100.00
9764;BME280;4921;43.214;27.936;2023-05-12T09:41:02;101682.44;;;17.87;100.00
9764;BME280;4921;43.214;27.936;2023-05-12T09:43:30;101676.94;;;17.89;100.00
9764;BME280;4921;43.214;27.936;2023-05-12T09:46:03;101665.66;;;17.68;100.00
9764;BME280;4921;43.214;27.936;2023-05-12T09:48:31;101675.72;;;17.74;100.00
9764;BME280;4921;43.214;27.936;2023-05-12T09:50:58;101683.84;;;17.63;100.00
9764;BME280;4921;43.214;27.936;2023-05-12T09:53:25;101689.16;;;17.82;100.00
9764;BME280;4921;43.214;27.936;2023-05-12T09:55:52;101677.06;;;17.97;100.00
9764;BME280;4921;43.214;27.936;2023-05-12T09:58:19;101680.16;;;17.92;100.00
9764;BME280;4921;43.214;27.936;2023-05-12T10:00:51;101679.06;;;17.85;100.00
9764;BME280;4921;43.214;27.936;2023-05-12T10:03:43;101673.31;;;17.71;100.00
9764;BME280;4921;43.214;27.936;2023-05-12T10:06:13;101671.91;;;17.95;100.00
9764;BME280;4921;43.214;27.936;2023-05-12T10:08:45;101671.09;;;17.76;100.00
9764;BME280;4921;43.214;27.936;2023-05-12T10:11:13;101677.53;;;17.44;100.00
9764;BME280;4921;43.214;27.936;2023-05-12T10:13:42;101676.56;;;17.65;100.00
9764;BME280;4921;43.214;27.936;2023-05-12T10:16:12;101651.75;;;17.45;100.00
9764;BME280;4921;43.214;27.936;2023-05-12T10:18:42;101691.00;;;17.52;100.00
9764;BME280;4921;43.214;27.936;2023-05-12T10:21:17;101670.66;;;17.71;100.00
9764;BME280;4921;43.214;27.936;2023-05-12T10:24:02;101677.84;;;17.51;100.00
9764;BME280;4921;43.214;27.936;2023-05-12T10:26:34;101678.25;;;17.66;100.00
9764;BME280;4921;43.214;27.936;2023-05-12T10:29:10;101679.91;;;17.76;100.00
9764;BME280;4921;43.214;27.936;2023-05-12T10:31:43;101673.34;;;17.61;100.00
9764;BME280;4921;43.214;27.936;2023-05-12T10:34:16;101672.38;;;17.52;100.00
9764;BME280;4921;43.214;27.936;2023-05-12T10:36:47;101679.06;;;17.76;100.00
9764;BME280;4921;43.214;27.936;2023-05-12T10:39:18;101658.22;;;17.81;100.00
9764;BME280;4921;43.214;27.936;2023-05-12T10:41:59;101676.41;;;17.85;100.00
9764;BME280;4921;43.214;27.936;2023-05-12T10:44:32;101674.97;;;18.00;100.00
9764;BME280;4921;43.214;27.936;2023-05-12T10:47:11;101675.94;;;17.99;100.00
9764;BME280;4921;43.214;27.936;2023-05-12T10:49:39;101668.97;;;17.79;100.00
9764;BME280;4921;43.214;27.936;2023-05-12T10:52:09;101675.66;;;18.02;100.00
9764;BME280;4921;43.214;27.936;2023-05-12T10:54:39;101684.19;;;18.06;95.51
9764;BME280;4921;43.214;27.936;2023-05-12T10:57:11;101678.91;;;17.87;84.61
9764;BME280;4921;43.214;27.936;2023-05-12T10:59:47;101677.41;;;17.46;83.16
9764;BME280;4921;43.214;27.936;2023-05-12T11:02:16;101673.78;;;17.57;76.38
9764;BME280;4921;43.214;27.936;2023-05-12T11:04:49;101667.31;;;17.40;69.72
9764;BME280;4921;43.214;27.936;2023-05-12T11:07:20;101666.63;;;17.38;61.01
9764;BME280;4921;43.214;27.936;2023-05-12T11:09:47;101668.25;;;17.10;66.51
9764;BME280;4921;43.214;27.936;2023-05-12T11:12:15;101654.56;;;17.24;66.37
9764;BME280;4921;43.214;27.936;2023-05-12T11:14:44;101653.72;;;17.05;62.86
9764;BME280;4921;43.214;27.936;2023-05-12T11:17:11;101674.72;;;17.27;64.97
9764;BME280;4921;43.214;27.936;2023-05-12T11:19:45;101678.78;;;17.21;67.17
9764;BME280;4921;43.214;27.936;2023-05-12T11:22:12;101674.44;;;17.11;71.17
9764;BME280;4921;43.214;27.936;2023-05-12T11:24:40;101672.59;;;16.92;66.74
9764;BME280;4921;43.214;27.936;2023-05-12T11:27:12;101674.03;;;17.25;100.00
9764;BME280;4921;43.214;27.936;2023-05-12T11:29:39;101675.41;;;17.19;64.82
9764;BME280;4921;43.214;27.936;2023-05-12T11:32:08;101675.66;;;16.97;60.47
9764;BME280;4921;43.214;27.936;2023-05-12T11:34:35;101680.66;;;16.81;66.62
9764;BME280;4921;43.214;27.936;2023-05-12T11:37:04;101674.50;;;16.81;65.02
9764;BME280;4921;43.214;27.936;2023-05-12T11:39:32;101679.13;;;16.78;63.52
9764;BME280;4921;43.214;27.936;2023-05-12T11:42:01;101684.19;;;16.91;63.34
9764;BME280;4921;43.214;27.936;2023-05-12T11:44:29;101676.06;;;16.83;62.19
9764;BME280;4921;43.214;27.936;2023-05-12T11:46:58;101669.31;;;16.69;61.80
9764;BME280;4921;43.214;27.936;2023-05-12T11:49:25;101676.16;;;16.72;59.74
9764;BME280;4921;43.214;27.936;2023-05-12T11:52:04;101671.84;;;16.71;63.49
9764;BME280;4921;43.214;27.936;2023-05-12T11:54:32;101679.50;;;16.64;63.54
9764;BME280;4921;43.214;27.936;2023-05-12T11:56:59;101678.66;;;16.64;65.92
9764;BME280;4921;43.214;27.936;2023-05-12T11:59:27;101667.66;;;16.78;66.00
9764;BME280;4921;43.214;27.936;2023-05-12T12:01:55;101675.63;;;16.78;65.56
9764;BME280;4921;43.214;27.936;2023-05-12T12:04:33;101673.84;;;16.88;56.64
9764;BME280;4921;43.214;27.936;2023-05-12T12:07:00;101672.66;;;16.71;53.64
9764;BME280;4921;43.214;27.936;2023-05-12T12:09:34;101672.75;;;17.10;55.73
9764;BME280;4921;43.214;27.936;2023-05-12T12:12:03;101675.41;;;17.19;53.18
9764;BME280;4921;43.214;27.936;2023-05-12T12:14:31;101677.19;;;17.00;52.15
9764;BME280;4921;43.214;27.936;2023-05-12T12:16:59;101680.56;;;17.02;51.66
9764;BME280;4921;43.214;27.936;2023-05-12T12:19:26;101668.41;;;16.99;55.36
9764;BME280;4921;43.214;27.936;2023-05-12T12:21:53;101672.88;;;16.99;54.83
9764;BME280;4921;43.214;27.936;2023-05-12T12:24:21;101673.84;;;16.98;58.74
9764;BME280;4921;43.214;27.936;2023-05-12T12:26:49;101661.53;;;16.87;58.92
9764;BME280;4921;43.214;27.936;2023-05-12T12:29:16;101670.91;;;16.91;58.23
9764;BME280;4921;43.214;27.936;2023-05-12T12:31:43;101645.47;;;16.98;56.87
9764;BME280;4921;43.214;27.936;2023-05-12T12:34:11;101666.13;;;16.75;57.18
9764;BME280;4921;43.214;27.936;2023-05-12T12:36:37;101661.88;;;16.63;55.87
9764;BME280;4921;43.214;27.936;2023-05-12T12:39:05;101665.81;;;16.69;58.36
9764;BME280;4921;43.214;27.936;2023-05-12T12:41:32;101670.19;;;16.89;58.33
9764;BME280;4921;43.214;27.936;2023-05-12T12:44:01;101664.75;;;16.91;57.11
9764;BME280;4921;43.214;27.936;2023-05-12T12:46:28;101658.88;;;17.06;57.63
9764;BME280;4921;43.214;27.936;2023-05-12T12:48:55;101670.50;;;17.34;54.90
9764;BME280;4921;43.214;27.936;2023-05-12T12:51:22;101668.59;;;17.36;53.55
9764;BME280;4921;43.214;27.936;2023-05-12T12:53:50;101665.09;;;17.55;49.75
9764;BME280;4921;43.214;27.936;2023-05-12T12:56:17;101664.81;;;17.67;50.15